sensor_id;sensor_type;location;lat;lon;timestamp;P1;durP1;ratioP1;P2;durP2;ratioP2
13999;SDS011;7075;53.574;10.054;2023-03-16T00:00:46;10.77;;;2.90;;
13999;SDS011;7075;53.574;10.054;2023-03-16T00:03:12;7.50;;;3.43;;
13999;SDS011;7075;53.574;10.054;2023-03-16T00:05:43;12.20;;;4.87;;
13999;SDS011;7075;53.574;10.054;2023-03-16T00:08:18;13.67;;;4.23;;
13999;SDS011;7075;53.574;10.054;2023-03-16T00:10:44;9.63;;;3.90;;
13999;SDS011;7075;53.574;10.054;2023-03-16T00:13:13;10.03;;;4.23;;
13999;SDS011;7075;53.574;10.054;2023-03-16T00:15:52;9.40;;;3.77;;
13999;SDS011;7075;53.574;10.054;2023-03-16T00:18:21;7.40;;;3.00;;
13999;SDS011;7075;53.574;10.054;2023-03-16T00:20:51;11.03;;;3.97;;
13999;SDS011;7075;53.574;10.054;2023-03-16T00:23:26;10.20;;;4.10;;
13999;SDS011;7075;53.574;10.054;2023-03-16T00:25:56;9.93;;;3.87;;
13999;SDS011;7075;53.574;10.054;2023-03-16T00:28:23;8.57;;;3.80;;
13999;SDS011;7075;53.574;10.054;2023-03-16T00:30:50;13.53;;;4.07;;
13999;SDS011;7075;53.574;10.054;2023-03-16T00:33:16;10.10;;;4.70;;
13999;SDS011;7075;53.574;10.054;2023-03-16T00:35:46;10.83;;;5.37;;
13999;SDS011;7075;53.574;10.054;2023-03-16T00:38:19;4.63;;;3.30;;
13999;SDS011;7075;53.574;10.054;2023-03-16T00:40:45;14.33;;;4.20;;
13999;SDS011;7075;53.574;10.054;2023-03-16T00:43:11;8.47;;;3.30;;
13999;SDS011;7075;53.574;10.054;2023-03-16T00:45:42;11.03;;;3.33;;
13999;SDS011;7075;53.574;10.054;2023-03-16T00:48:08;9.60;;;4.03;;
13999;SDS011;7075;53.574;10.054;2023-03-16T00:50:35;10.47;;;3.93;;
13999;SDS011;7075;53.574;10.054;2023-03-16T00:53:01;7.70;;;3.37;;
13999;SDS011;7075;53.574;10.054;2023-03-16T00:55:27;7.00;;;3.93;;
13999;SDS011;7075;53.574;10.054;2023-03-16T00:57:52;8.73;;;4.30;;
13999;SDS011;7075;53.574;10.054;2023-03-16T01:02:53;11.27;;;3.67;;
13999;SDS011;7075;53.574;10.054;2023-03-16T01:05:18;11.17;;;4.10;;
13999;SDS011;7075;53.574;10.054;2023-03-16T01:07:44;12.70;;;3.37;;
13999;SDS011;7075;53.574;10.054;2023-03-16T01:10:10;9.37;;;3.73;;
13999;SDS011;7075;53.574;10.054;2023-03-16T01:12:36;7.20;;;3.60;;
13999;SDS011;7075;53.574;10.054;2023-03-16T01:15:02;11.20;;;3.63;;
13999;SDS011;7075;53.574;10.054;2023-03-16T01:17:28;8.47;;;3.93;;
13999;SDS011;7075;53.574;10.054;2023-03-16T01:19:53;8.53;;;3.60;;
13999;SDS011;7075;53.574;10.054;2023-03-16T01:22:19;9.87;;;4.10;;
13999;SDS011;7075;53.574;10.054;2023-03-16T01:24:45;14.13;;;5.40;;
13999;SDS011;7075;53.574;10.054;2023-03-16T01:27:11;6.23;;;3.33;;
13999;SDS011;7075;53.574;10.054;2023-03-16T01:29:38;9.33;;;4.27;;
13999;SDS011;7075;53.574;10.054;2023-03-16T01:32:05;7.93;;;3.77;;
13999;SDS011;7075;53.574;10.054;2023-03-16T01:34:31;12.07;;;3.83;;
13999;SDS011;7075;53.574;10.054;2023-03-16T01:36:58;7.97;;;4.03;;
13999;SDS011;7075;53.574;10.054;2023-03-16T01:39:25;9.23;;;3.53;;
13999;SDS011;7075;53.574;10.054;2023-03-16T01:41:50;6.23;;;3.47;;
13999;SDS011;7075;53.574;10.054;2023-03-16T01:44:20;10.67;;;4.10;;
13999;SDS011;7075;53.574;10.054;2023-03-16T01:46:48;6.47;;;2.60;;
13999;SDS011;7075;53.574;10.054;2023-03-16T01:49:33;7.27;;;3.33;;
13999;SDS011;7075;53.574;10.054;2023-03-16T01:52:03;9.23;;;3.93;;
13999;SDS011;7075;53.574;10.054;2023-03-16T01:54:38;10.40;;;3.60;;
13999;SDS011;7075;53.574;10.054;2023-03-16T01:57:17;14.50;;;3.40;;
13999;SDS011;7075;53.574;10.054;2023-03-16T01:59:51;7.77;;;2.87;;
13999;SDS011;7075;53.574;10.054;2023-03-16T02:02:34;10.77;;;3.47;;
13999;SDS011;7075;53.574;10.054;2023-03-16T02:05:04;8.63;;;3.37;;
13999;SDS011;7075;53.574;10.054;2023-03-16T02:07:40;11.23;;;3.00;;
13999;SDS011;7075;53.574;10.054;2023-03-16T02:10:10;5.77;;;2.60;;
13999;SDS011;7075;53.574;10.054;2023-03-16T02:12:38;8.10;;;3.53;;
13999;SDS011;7075;53.574;10.054;2023-03-16T02:15:04;7.37;;;2.90;;
13999;SDS011;7075;53.574;10.054;2023-03-16T02:17:31;4.33;;;2.50;;
13999;SDS011;7075;53.574;10.054;2023-03-16T02:22:45;6.77;;;2.40;;
13999;SDS011;7075;53.574;10.054;2023-03-16T02:25:13;5.13;;;2.80;;
13999;SDS011;7075;53.574;10.054;2023-03-16T02:30:20;9.37;;;3.23;;
13999;SDS011;7075;53.574;10.054;2023-03-16T02:32:45;6.70;;;3.03;;
13999;SDS011;7075;53.574;10.054;2023-03-16T02:35:13;9.23;;;2.73;;
13999;SDS011;7075;53.574;10.054;2023-03-16T02:37:40;8.17;;;2.20;;
13999;SDS011;7075;53.574;10.054;2023-03-16T02:40:19;4.17;;;2.67;;
13999;SDS011;7075;53.574;10.054;2023-03-16T02:43:33;6.50;;;2.17;;
13999;SDS011;7075;53.574;10.054;2023-03-16T02:51:24;4.97;;;2.47;;
13999;SDS011;7075;53.574;10.054;2023-03-16T02:53:49;6.27;;;2.40;;
13999;SDS011;7075;53.574;10.054;2023-03-16T02:56:15;9.57;;;3.03;;
13999;SDS011;7075;53.574;10.054;2023-03-16T02:58:40;4.53;;;2.70;;
13999;SDS011;7075;53.574;10.054;2023-03-16T03:01:06;5.70;;;1.90;;
13999;SDS011;7075;53.574;10.054;2023-03-16T03:03:31;6.57;;;2.03;;
13999;SDS011;7075;53.574;10.054;2023-03-16T03:05:58;6.47;;;1.70;;
13999;SDS011;7075;53.574;10.054;2023-03-16T03:08:24;6.23;;;2.70;;
13999;SDS011;7075;53.574;10.054;2023-03-16T03:10:49;4.63;;;2.23;;
13999;SDS011;7075;53.574;10.054;2023-03-16T03:13:15;6.83;;;2.53;;
13999;SDS011;7075;53.574;10.054;2023-03-16T03:15:41;5.60;;;2.50;;
13999;SDS011;7075;53.574;10.054;2023-03-16T03:18:07;5.37;;;2.60;;
13999;SDS011;7075;53.574;10.054;2023-03-16T03:20:32;6.40;;;2.70;;
13999;SDS011;7075;53.574;10.054;2023-03-16T03:22:58;6.20;;;2.07;;
13999;SDS011;7075;53.574;10.054;2023-03-16T03:25:24;5.47;;;2.60;;
13999;SDS011;7075;53.574;10.054;2023-03-16T03:27:50;6.27;;;2.67;;
13999;SDS011;7075;53.574;10.054;2023-03-16T03:30:19;5.87;;;2.20;;
13999;SDS011;7075;53.574;10.054;2023-03-16T03:32:47;9.23;;;2.03;;
13999;SDS011;7075;53.574;10.054;2023-03-16T03:35:13;7.47;;;2.40;;
13999;SDS011;7075;53.574;10.054;2023-03-16T03:37:40;4.23;;;2.40;;
13999;SDS011;7075;53.574;10.054;2023-03-16T03:40:07;6.73;;;2.87;;
13999;SDS011;7075;53.574;10.054;2023-03-16T03:42:34;3.13;;;2.20;;
13999;SDS011;7075;53.574;10.054;2023-03-16T03:45:00;6.53;;;2.37;;
13999;SDS011;7075;53.574;10.054;2023-03-16T03:47:26;9.07;;;2.70;;
13999;SDS011;7075;53.574;10.054;2023-03-16T03:49:51;8.20;;;2.63;;
13999;SDS011;7075;53.574;10.054;2023-03-16T03:52:33;4.30;;;2.07;;
13999;SDS011;7075;53.574;10.054;2023-03-16T03:54:58;4.70;;;3.00;;
13999;SDS011;7075;53.574;10.054;2023-03-16T03:57:24;4.60;;;2.37;;
13999;SDS011;7075;53.574;10.054;2023-03-16T03:59:49;4.90;;;2.00;;
13999;SDS011;7075;53.574;10.054;2023-03-16T04:02:15;4.63;;;2.27;;
13999;SDS011;7075;53.574;10.054;2023-03-16T04:04:40;3.97;;;2.20;;
13999;SDS011;7075;53.574;10.054;2023-03-16T04:07:08;7.60;;;2.00;;
13999;SDS011;7075;53.574;10.054;2023-03-16T04:09:34;3.77;;;2.33;;
13999;SDS011;7075;53.574;10.054;2023-03-16T04:12:00;5.50;;;2.17;;
13999;SDS011;7075;53.574;10.054;2023-03-16T04:14:27;5.93;;;2.03;;
13999;SDS011;7075;53.574;10.054;2023-03-16T04:16:53;7.73;;;1.93;;
13999;SDS011;7075;53.574;10.054;2023-03-16T04:19:18;6.03;;;2.27;;
13999;SDS011;7075;53.574;10.054;2023-03-16T04:21:44;7.13;;;2.60;;
13999;SDS011;7075;53.574;10.054;2023-03-16T04:24:10;3.67;;;1.83;;
13999;SDS011;7075;53.574;10.054;2023-03-16T04:26:41;5.30;;;2.10;;
13999;SDS011;7075;53.574;10.054;2023-03-16T04:29:09;8.53;;;2.83;;
13999;SDS011;7075;53.574;10.054;2023-03-16T04:31:35;10.03;;;3.07;;
13999;SDS011;7075;53.574;10.054;2023-03-16T04:34:00;2.63;;;2.03;;
13999;SDS011;7075;53.574;10.054;2023-03-16T04:36:26;4.37;;;2.07;;
13999;SDS011;7075;53.574;10.054;2023-03-16T04:38:52;1.73;;;1.60;;
13999;SDS011;7075;53.574;10.054;2023-03-16T04:41:17;4.03;;;2.13;;
13999;SDS011;7075;53.574;10.054;2023-03-16T04:43:43;3.00;;;2.43;;
13999;SDS011;7075;53.574;10.054;2023-03-16T04:46:09;5.47;;;2.50;;
13999;SDS011;7075;53.574;10.054;2023-03-16T04:48:35;3.80;;;2.00;;
13999;SDS011;7075;53.574;10.054;2023-03-16T04:51:01;2.70;;;1.90;;
13999;SDS011;7075;53.574;10.054;2023-03-16T04:53:28;6.70;;;2.43;;
13999;SDS011;7075;53.574;10.054;2023-03-16T04:55:54;3.57;;;2.37;;
13999;SDS011;7075;53.574;10.054;2023-03-16T04:58:20;8.03;;;2.60;;
13999;SDS011;7075;53.574;10.054;2023-03-16T05:00:46;7.40;;;2.40;;
13999;SDS011;7075;53.574;10.054;2023-03-16T05:03:12;4.20;;;2.33;;
13999;SDS011;7075;53.574;10.054;2023-03-16T05:05:38;6.87;;;2.30;;
13999;SDS011;7075;53.574;10.054;2023-03-16T05:08:04;4.70;;;2.10;;
13999;SDS011;7075;53.574;10.054;2023-03-16T05:10:31;3.93;;;2.40;;
13999;SDS011;7075;53.574;10.054;2023-03-16T05:12:57;7.73;;;2.63;;
13999;SDS011;7075;53.574;10.054;2023-03-16T05:15:24;3.97;;;1.83;;
13999;SDS011;7075;53.574;10.054;2023-03-16T05:17:53;8.13;;;2.30;;
13999;SDS011;7075;53.574;10.054;2023-03-16T05:20:20;4.80;;;2.03;;
13999;SDS011;7075;53.574;10.054;2023-03-16T05:22:46;7.07;;;2.30;;
13999;SDS011;7075;53.574;10.054;2023-03-16T05:25:12;3.63;;;1.87;;
13999;SDS011;7075;53.574;10.054;2023-03-16T05:27:40;5.13;;;2.30;;
13999;SDS011;7075;53.574;10.054;2023-03-16T05:30:07;3.73;;;1.63;;
13999;SDS011;7075;53.574;10.054;2023-03-16T05:32:37;2.93;;;2.03;;
13999;SDS011;7075;53.574;10.054;2023-03-16T05:35:04;3.00;;;1.43;;
13999;SDS011;7075;53.574;10.054;2023-03-16T05:37:29;3.87;;;2.73;;
13999;SDS011;7075;53.574;10.054;2023-03-16T05:39:55;3.53;;;1.90;;
13999;SDS011;7075;53.574;10.054;2023-03-16T05:42:22;3.83;;;1.70;;
13999;SDS011;7075;53.574;10.054;2023-03-16T05:44:50;4.83;;;1.83;;
13999;SDS011;7075;53.574;10.054;2023-03-16T05:47:16;3.93;;;2.43;;
13999;SDS011;7075;53.574;10.054;2023-03-16T05:49:42;5.83;;;2.00;;
13999;SDS011;7075;53.574;10.054;2023-03-16T05:52:07;4.90;;;1.90;;
13999;SDS011;7075;53.574;10.054;2023-03-16T05:54:34;6.00;;;2.20;;
13999;SDS011;7075;53.574;10.054;2023-03-16T05:57:00;5.67;;;2.00;;
13999;SDS011;7075;53.574;10.054;2023-03-16T05:59:25;3.23;;;2.30;;
13999;SDS011;7075;53.574;10.054;2023-03-16T06:01:51;2.60;;;1.50;;
13999;SDS011;7075;53.574;10.054;2023-03-16T06:04:16;3.50;;;1.60;;
13999;SDS011;7075;53.574;10.054;2023-03-16T06:06:42;2.50;;;1.77;;
13999;SDS011;7075;53.574;10.054;2023-03-16T06:09:07;7.23;;;2.43;;
13999;SDS011;7075;53.574;10.054;2023-03-16T06:11:33;2.43;;;1.80;;
13999;SDS011;7075;53.574;10.054;2023-03-16T06:13:59;4.47;;;2.30;;
13999;SDS011;7075;53.574;10.054;2023-03-16T06:16:25;6.60;;;2.50;;
13999;SDS011;7075;53.574;10.054;2023-03-16T06:18:50;5.33;;;1.93;;
13999;SDS011;7075;53.574;10.054;2023-03-16T06:21:16;3.70;;;1.80;;
13999;SDS011;7075;53.574;10.054;2023-03-16T06:23:41;4.67;;;2.10;;
13999;SDS011;7075;53.574;10.054;2023-03-16T06:26:08;2.20;;;1.67;;
13999;SDS011;7075;53.574;10.054;2023-03-16T06:28:34;4.03;;;2.63;;
13999;SDS011;7075;53.574;10.054;2023-03-16T06:30:59;8.33;;;2.60;;
13999;SDS011;7075;53.574;10.054;2023-03-16T06:33:25;6.60;;;2.40;;
13999;SDS011;7075;53.574;10.054;2023-03-16T06:35:50;3.90;;;1.70;;
13999;SDS011;7075;53.574;10.054;2023-03-16T06:38:17;5.30;;;2.40;;
13999;SDS011;7075;53.574;10.054;2023-03-16T06:40:43;4.97;;;2.60;;
13999;SDS011;7075;53.574;10.054;2023-03-16T06:43:08;5.83;;;2.23;;
13999;SDS011;7075;53.574;10.054;2023-03-16T06:45:34;2.33;;;1.50;;
13999;SDS011;7075;53.574;10.054;2023-03-16T06:48:00;3.20;;;1.60;;
13999;SDS011;7075;53.574;10.054;2023-03-16T06:50:26;5.43;;;2.50;;
13999;SDS011;7075;53.574;10.054;2023-03-16T06:52:52;2.67;;;1.50;;
13999;SDS011;7075;53.574;10.054;2023-03-16T06:55:17;2.23;;;1.67;;
13999;SDS011;7075;53.574;10.054;2023-03-16T06:57:43;3.50;;;2.10;;
13999;SDS011;7075;53.574;10.054;2023-03-16T07:00:12;4.83;;;2.17;;
13999;SDS011;7075;53.574;10.054;2023-03-16T07:02:39;6.93;;;2.10;;
13999;SDS011;7075;53.574;10.054;2023-03-16T07:05:06;6.97;;;2.23;;
13999;SDS011;7075;53.574;10.054;2023-03-16T07:07:32;4.33;;;2.40;;
13999;SDS011;7075;53.574;10.054;2023-03-16T07:09:58;5.53;;;2.20;;
13999;SDS011;7075;53.574;10.054;2023-03-16T07:12:23;6.23;;;2.43;;
13999;SDS011;7075;53.574;10.054;2023-03-16T07:14:49;4.77;;;2.37;;
13999;SDS011;7075;53.574;10.054;2023-03-16T07:17:15;4.07;;;1.73;;
13999;SDS011;7075;53.574;10.054;2023-03-16T07:19:42;3.40;;;1.80;;
13999;SDS011;7075;53.574;10.054;2023-03-16T07:22:08;4.03;;;1.90;;
13999;SDS011;7075;53.574;10.054;2023-03-16T07:24:34;2.80;;;1.90;;
13999;SDS011;7075;53.574;10.054;2023-03-16T07:26:59;4.37;;;1.80;;
13999;SDS011;7075;53.574;10.054;2023-03-16T07:29:25;3.77;;;1.67;;
13999;SDS011;7075;53.574;10.054;2023-03-16T07:31:51;4.20;;;2.07;;
13999;SDS011;7075;53.574;10.054;2023-03-16T07:34:17;3.33;;;2.10;;
13999;SDS011;7075;53.574;10.054;2023-03-16T07:36:43;5.73;;;2.23;;
13999;SDS011;7075;53.574;10.054;2023-03-16T07:39:10;3.73;;;1.67;;
13999;SDS011;7075;53.574;10.054;2023-03-16T07:41:38;5.47;;;2.10;;
13999;SDS011;7075;53.574;10.054;2023-03-16T07:44:03;4.57;;;2.20;;
13999;SDS011;7075;53.574;10.054;2023-03-16T07:46:29;4.43;;;1.97;;
13999;SDS011;7075;53.574;10.054;2023-03-16T07:48:56;3.83;;;2.23;;
13999;SDS011;7075;53.574;10.054;2023-03-16T07:51:22;5.77;;;2.53;;
13999;SDS011;7075;53.574;10.054;2023-03-16T07:53:48;4.97;;;2.60;;
13999;SDS011;7075;53.574;10.054;2023-03-16T07:56:13;4.77;;;1.83;;
13999;SDS011;7075;53.574;10.054;2023-03-16T07:58:39;2.03;;;1.40;;
13999;SDS011;7075;53.574;10.054;2023-03-16T08:01:06;4.27;;;2.60;;
13999;SDS011;7075;53.574;10.054;2023-03-16T08:03:31;4.50;;;1.77;;
13999;SDS011;7075;53.574;10.054;2023-03-16T08:05:57;6.23;;;2.57;;
13999;SDS011;7075;53.574;10.054;2023-03-16T08:08:22;3.63;;;1.90;;
13999;SDS011;7075;53.574;10.054;2023-03-16T08:10:48;6.33;;;2.10;;
13999;SDS011;7075;53.574;10.054;2023-03-16T08:13:16;7.30;;;2.37;;
13999;SDS011;7075;53.574;10.054;2023-03-16T08:15:46;5.23;;;1.93;;
13999;SDS011;7075;53.574;10.054;2023-03-16T08:18:12;6.63;;;2.23;;
13999;SDS011;7075;53.574;10.054;2023-03-16T08:20:38;6.40;;;1.93;;
13999;SDS011;7075;53.574;10.054;2023-03-16T08:23:03;6.57;;;2.30;;
13999;SDS011;7075;53.574;10.054;2023-03-16T08:25:29;5.87;;;2.73;;
13999;SDS011;7075;53.574;10.054;2023-03-16T08:27:54;5.50;;;2.30;;
13999;SDS011;7075;53.574;10.054;2023-03-16T08:30:22;7.13;;;2.77;;
13999;SDS011;7075;53.574;10.054;2023-03-16T08:32:49;4.97;;;2.47;;
13999;SDS011;7075;53.574;10.054;2023-03-16T08:35:15;5.03;;;1.93;;
13999;SDS011;7075;53.574;10.054;2023-03-16T08:37:40;5.00;;;2.40;;
13999;SDS011;7075;53.574;10.054;2023-03-16T08:40:07;5.93;;;2.57;;
13999;SDS011;7075;53.574;10.054;2023-03-16T08:42:35;6.00;;;2.43;;
13999;SDS011;7075;53.574;10.054;2023-03-16T08:45:04;4.50;;;2.13;;
13999;SDS011;7075;53.574;10.054;2023-03-16T08:47:33;4.67;;;1.93;;
13999;SDS011;7075;53.574;10.054;2023-03-16T08:50:00;6.67;;;2.10;;
13999;SDS011;7075;53.574;10.054;2023-03-16T08:52:25;3.87;;;2.13;;
13999;SDS011;7075;53.574;10.054;2023-03-16T08:54:51;3.23;;;2.20;;
13999;SDS011;7075;53.574;10.054;2023-03-16T08:57:17;6.07;;;1.87;;
13999;SDS011;7075;53.574;10.054;2023-03-16T08:59:43;6.93;;;2.40;;
13999;SDS011;7075;53.574;10.054;2023-03-16T09:02:12;6.20;;;3.00;;
13999;SDS011;7075;53.574;10.054;2023-03-16T09:04:39;4.43;;;2.00;;
13999;SDS011;7075;53.574;10.054;2023-03-16T09:07:05;7.07;;;2.03;;
13999;SDS011;7075;53.574;10.054;2023-03-16T09:09:32;4.53;;;2.20;;
13999;SDS011;7075;53.574;10.054;2023-03-16T09:12:01;6.30;;;2.23;;
13999;SDS011;7075;53.574;10.054;2023-03-16T09:14:29;10.33;;;2.43;;
13999;SDS011;7075;53.574;10.054;2023-03-16T09:16:56;5.67;;;2.10;;
13999;SDS011;7075;53.574;10.054;2023-03-16T09:19:22;4.60;;;1.60;;
13999;SDS011;7075;53.574;10.054;2023-03-16T09:21:49;2.77;;;1.60;;
13999;SDS011;7075;53.574;10.054;2023-03-16T09:24:15;3.33;;;1.97;;
13999;SDS011;7075;53.574;10.054;2023-03-16T09:26:41;2.83;;;1.50;;
13999;SDS011;7075;53.574;10.054;2023-03-16T09:29:09;4.53;;;1.70;;
13999;SDS011;7075;53.574;10.054;2023-03-16T09:31:35;4.70;;;1.97;;
13999;SDS011;7075;53.574;10.054;2023-03-16T09:34:02;4.93;;;1.57;;
13999;SDS011;7075;53.574;10.054;2023-03-16T09:36:28;5.73;;;1.43;;
13999;SDS011;7075;53.574;10.054;2023-03-16T09:38:54;2.90;;;1.60;;
13999;SDS011;7075;53.574;10.054;2023-03-16T09:46:46;6.57;;;1.70;;
13999;SDS011;7075;53.574;10.054;2023-03-16T09:49:17;6.80;;;1.57;;
13999;SDS011;7075;53.574;10.054;2023-03-16T09:51:59;3.53;;;1.40;;
13999;SDS011;7075;53.574;10.054;2023-03-16T09:57:26;4.43;;;1.37;;
13999;SDS011;7075;53.574;10.054;2023-03-16T10:00:22;2.17;;;1.30;;
13999;SDS011;7075;53.574;10.054;2023-03-16T10:05:41;7.27;;;1.60;;
13999;SDS011;7075;53.574;10.054;2023-03-16T10:13:15;4.00;;;1.27;;
13999;SDS011;7075;53.574;10.054;2023-03-16T10:15:51;2.90;;;1.00;;
13999;SDS011;7075;53.574;10.054;2023-03-16T10:18:21;4.80;;;1.30;;
13999;SDS011;7075;53.574;10.054;2023-03-16T10:20:56;2.37;;;1.30;;
13999;SDS011;7075;53.574;10.054;2023-03-16T10:23:22;5.63;;;1.30;;
13999;SDS011;7075;53.574;10.054;2023-03-16T10:25:50;3.60;;;1.00;;
13999;SDS011;7075;53.574;10.054;2023-03-16T10:28:17;2.47;;;0.97;;
13999;SDS011;7075;53.574;10.054;2023-03-16T10:30:45;3.73;;;1.17;;
13999;SDS011;7075;53.574;10.054;2023-03-16T10:35:57;3.87;;;1.13;;
13999;SDS011;7075;53.574;10.054;2023-03-16T10:38:46;3.87;;;1.40;;
13999;SDS011;7075;53.574;10.054;2023-03-16T10:43:55;2.43;;;0.80;;
13999;SDS011;7075;53.574;10.054;2023-03-16T10:46:49;1.97;;;0.60;;
13999;SDS011;7075;53.574;10.054;2023-03-16T10:49:44;3.10;;;1.20;;
13999;SDS011;7075;53.574;10.054;2023-03-16T10:57:54;1.73;;;0.97;;
13999;SDS011;7075;53.574;10.054;2023-03-16T11:00:27;1.20;;;0.63;;
13999;SDS011;7075;53.574;10.054;2023-03-16T11:02:55;2.53;;;1.33;;
13999;SDS011;7075;53.574;10.054;2023-03-16T11:05:24;5.37;;;1.00;;
13999;SDS011;7075;53.574;10.054;2023-03-16T11:07:58;6.03;;;1.20;;
13999;SDS011;7075;53.574;10.054;2023-03-16T11:10:45;3.03;;;1.10;;
13999;SDS011;7075;53.574;10.054;2023-03-16T11:13:18;3.80;;;0.80;;
13999;SDS011;7075;53.574;10.054;2023-03-16T11:15:53;6.20;;;0.90;;
13999;SDS011;7075;53.574;10.054;2023-03-16T11:18:46;2.37;;;0.93;;
13999;SDS011;7075;53.574;10.054;2023-03-16T11:21:37;3.77;;;0.93;;
13999;SDS011;7075;53.574;10.054;2023-03-16T11:24:14;2.33;;;0.90;;
13999;SDS011;7075;53.574;10.054;2023-03-16T11:26:45;4.13;;;1.00;;
13999;SDS011;7075;53.574;10.054;2023-03-16T11:29:19;1.00;;;0.83;;
13999;SDS011;7075;53.574;10.054;2023-03-16T11:31:50;2.03;;;0.83;;
13999;SDS011;7075;53.574;10.054;2023-03-16T11:34:22;4.67;;;1.10;;
13999;SDS011;7075;53.574;10.054;2023-03-16T11:36:53;3.70;;;1.30;;
13999;SDS011;7075;53.574;10.054;2023-03-16T11:39:23;3.30;;;1.20;;
13999;SDS011;7075;53.574;10.054;2023-03-16T11:42:13;3.87;;;1.00;;
13999;SDS011;7075;53.574;10.054;2023-03-16T11:50:55;5.03;;;1.17;;
13999;SDS011;7075;53.574;10.054;2023-03-16T11:53:31;0.83;;;0.53;;
13999;SDS011;7075;53.574;10.054;2023-03-16T11:56:14;2.23;;;0.80;;
13999;SDS011;7075;53.574;10.054;2023-03-16T11:58:59;1.90;;;0.60;;
13999;SDS011;7075;53.574;10.054;2023-03-16T12:07:41;1.97;;;1.00;;
13999;SDS011;7075;53.574;10.054;2023-03-16T12:19:10;2.43;;;0.90;;
13999;SDS011;7075;53.574;10.054;2023-03-16T12:21:46;2.17;;;1.23;;
13999;SDS011;7075;53.574;10.054;2023-03-16T12:24:26;3.90;;;1.00;;
13999;SDS011;7075;53.574;10.054;2023-03-16T12:26:57;2.67;;;0.70;;
13999;SDS011;7075;53.574;10.054;2023-03-16T12:29:37;4.43;;;0.80;;
13999;SDS011;7075;53.574;10.054;2023-03-16T12:34:43;2.90;;;0.90;;
13999;SDS011;7075;53.574;10.054;2023-03-16T12:39:55;1.33;;;0.73;;
13999;SDS011;7075;53.574;10.054;2023-03-16T12:48:29;4.37;;;1.00;;
13999;SDS011;7075;53.574;10.054;2023-03-16T12:51:00;1.90;;;0.70;;
13999;SDS011;7075;53.574;10.054;2023-03-16T12:56:15;0.73;;;0.73;;
13999;SDS011;7075;53.574;10.054;2023-03-16T12:58:46;1.57;;;0.80;;
13999;SDS011;7075;53.574;10.054;2023-03-16T13:01:15;1.40;;;0.67;;
13999;SDS011;7075;53.574;10.054;2023-03-16T13:03:45;1.60;;;0.70;;
13999;SDS011;7075;53.574;10.054;2023-03-16T13:06:17;2.73;;;0.80;;
13999;SDS011;7075;53.574;10.054;2023-03-16T13:08:47;2.50;;;0.97;;
13999;SDS011;7075;53.574;10.054;2023-03-16T13:11:16;1.50;;;0.97;;
13999;SDS011;7075;53.574;10.054;2023-03-16T13:16:34;1.27;;;0.80;;
13999;SDS011;7075;53.574;10.054;2023-03-16T13:19:23;3.77;;;0.97;;
13999;SDS011;7075;53.574;10.054;2023-03-16T13:22:01;1.20;;;0.60;;
13999;SDS011;7075;53.574;10.054;2023-03-16T13:24:37;2.20;;;0.87;;
13999;SDS011;7075;53.574;10.054;2023-03-16T13:29:58;1.80;;;0.90;;
13999;SDS011;7075;53.574;10.054;2023-03-16T13:32:29;3.73;;;0.90;;
13999;SDS011;7075;53.574;10.054;2023-03-16T13:34:59;2.50;;;1.00;;
13999;SDS011;7075;53.574;10.054;2023-03-16T13:37:29;1.20;;;0.80;;
13999;SDS011;7075;53.574;10.054;2023-03-16T13:39:56;4.70;;;1.20;;
13999;SDS011;7075;53.574;10.054;2023-03-16T13:42:23;2.47;;;0.87;;
13999;SDS011;7075;53.574;10.054;2023-03-16T13:44:53;1.13;;;0.70;;
13999;SDS011;7075;53.574;10.054;2023-03-16T13:47:29;2.60;;;0.90;;
13999;SDS011;7075;53.574;10.054;2023-03-16T13:49:56;3.63;;;1.17;;
13999;SDS011;7075;53.574;10.054;2023-03-16T13:52:31;3.57;;;0.87;;
13999;SDS011;7075;53.574;10.054;2023-03-16T13:55:05;2.57;;;0.57;;
13999;SDS011;7075;53.574;10.054;2023-03-16T13:57:40;1.33;;;0.80;;
13999;SDS011;7075;53.574;10.054;2023-03-16T14:00:21;2.97;;;0.87;;
13999;SDS011;7075;53.574;10.054;2023-03-16T14:02:51;3.83;;;0.90;;
13999;SDS011;7075;53.574;10.054;2023-03-16T14:05:41;1.33;;;1.03;;
13999;SDS011;7075;53.574;10.054;2023-03-16T14:08:19;1.90;;;0.80;;
13999;SDS011;7075;53.574;10.054;2023-03-16T14:10:49;2.30;;;0.80;;
13999;SDS011;7075;53.574;10.054;2023-03-16T14:13:31;1.70;;;0.63;;
13999;SDS011;7075;53.574;10.054;2023-03-16T14:16:14;3.97;;;0.87;;
13999;SDS011;7075;53.574;10.054;2023-03-16T14:18:43;1.20;;;0.53;;
13999;SDS011;7075;53.574;10.054;2023-03-16T14:21:13;0.90;;;0.70;;
13999;SDS011;7075;53.574;10.054;2023-03-16T14:23:45;4.03;;;0.73;;
13999;SDS011;7075;53.574;10.054;2023-03-16T14:26:16;1.40;;;0.97;;
13999;SDS011;7075;53.574;10.054;2023-03-16T14:31:46;2.60;;;0.97;;
13999;SDS011;7075;53.574;10.054;2023-03-16T14:34:19;5.37;;;0.83;;
13999;SDS011;7075;53.574;10.054;2023-03-16T14:36:47;2.20;;;0.93;;
13999;SDS011;7075;53.574;10.054;2023-03-16T14:39:15;2.20;;;1.00;;
13999;SDS011;7075;53.574;10.054;2023-03-16T14:41:48;2.30;;;0.90;;
13999;SDS011;7075;53.574;10.054;2023-03-16T14:44:22;1.10;;;0.80;;
13999;SDS011;7075;53.574;10.054;2023-03-16T14:46:53;2.87;;;1.00;;
13999;SDS011;7075;53.574;10.054;2023-03-16T14:49:24;1.23;;;0.90;;
13999;SDS011;7075;53.574;10.054;2023-03-16T14:52:03;3.00;;;0.93;;
13999;SDS011;7075;53.574;10.054;2023-03-16T14:54:33;2.03;;;0.70;;
13999;SDS011;7075;53.574;10.054;2023-03-16T14:56:59;2.13;;;0.90;;
13999;SDS011;7075;53.574;10.054;2023-03-16T14:59:29;3.20;;;0.90;;
13999;SDS011;7075;53.574;10.054;2023-03-16T15:01:56;8.53;;;0.83;;
13999;SDS011;7075;53.574;10.054;2023-03-16T15:04:28;1.10;;;0.90;;
13999;SDS011;7075;53.574;10.054;2023-03-16T15:06:57;1.47;;;0.73;;
13999;SDS011;7075;53.574;10.054;2023-03-16T15:09:30;1.90;;;0.90;;
13999;SDS011;7075;53.574;10.054;2023-03-16T15:12:11;1.30;;;0.70;;
13999;SDS011;7075;53.574;10.054;2023-03-16T15:14:38;0.73;;;0.50;;
13999;SDS011;7075;53.574;10.054;2023-03-16T15:17:23;3.07;;;0.97;;
13999;SDS011;7075;53.574;10.054;2023-03-16T15:19:50;2.37;;;0.87;;
13999;SDS011;7075;53.574;10.054;2023-03-16T15:24:55;1.93;;;0.70;;
13999;SDS011;7075;53.574;10.054;2023-03-16T15:27:27;3.17;;;0.77;;
13999;SDS011;7075;53.574;10.054;2023-03-16T15:29:58;1.07;;;0.70;;
13999;SDS011;7075;53.574;10.054;2023-03-16T15:32:25;4.63;;;1.07;;
13999;SDS011;7075;53.574;10.054;2023-03-16T15:34:51;1.53;;;0.80;;
13999;SDS011;7075;53.574;10.054;2023-03-16T15:37:17;1.83;;;1.10;;
13999;SDS011;7075;53.574;10.054;2023-03-16T15:39:44;2.53;;;0.70;;
13999;SDS011;7075;53.574;10.054;2023-03-16T15:42:16;2.40;;;0.70;;
13999;SDS011;7075;53.574;10.054;2023-03-16T15:44:43;4.30;;;0.60;;
13999;SDS011;7075;53.574;10.054;2023-03-16T15:47:09;2.83;;;0.70;;
13999;SDS011;7075;53.574;10.054;2023-03-16T15:49:41;2.07;;;1.13;;
13999;SDS011;7075;53.574;10.054;2023-03-16T15:52:17;6.33;;;1.23;;
13999;SDS011;7075;53.574;10.054;2023-03-16T15:54:50;2.93;;;1.23;;
13999;SDS011;7075;53.574;10.054;2023-03-16T15:57:16;4.23;;;1.13;;
13999;SDS011;7075;53.574;10.054;2023-03-16T15:59:41;1.70;;;0.80;;
13999;SDS011;7075;53.574;10.054;2023-03-16T16:02:20;2.67;;;1.00;;
13999;SDS011;7075;53.574;10.054;2023-03-16T16:04:54;2.07;;;0.80;;
13999;SDS011;7075;53.574;10.054;2023-03-16T16:07:21;1.60;;;0.90;;
13999;SDS011;7075;53.574;10.054;2023-03-16T16:09:48;2.57;;;1.03;;
13999;SDS011;7075;53.574;10.054;2023-03-16T16:12:15;3.90;;;1.00;;
13999;SDS011;7075;53.574;10.054;2023-03-16T16:14:42;5.13;;;1.07;;
13999;SDS011;7075;53.574;10.054;2023-03-16T16:17:11;3.30;;;1.00;;
13999;SDS011;7075;53.574;10.054;2023-03-16T16:19:39;4.20;;;1.20;;
13999;SDS011;7075;53.574;10.054;2023-03-16T16:22:07;1.60;;;0.73;;
13999;SDS011;7075;53.574;10.054;2023-03-16T16:24:38;7.83;;;1.13;;
13999;SDS011;7075;53.574;10.054;2023-03-16T16:27:03;2.73;;;1.00;;